Chapel Hill, NC

8:14 PM EST on March 01, 2015 (GMT -0500)
Edwards Pond | Change Station
CLOSE
Current Station
Personal Weather Station
Location: Chapel Hill, NC
Elevation: 486 ft
Nearby Weather Stations

Elev 486 ft 35.92 °N, 79.14 °W | Updated 3 minutes ago

Overcast
Overcast
32.5 °F
Feels Like 32 °F
N
0.0
Wind Variable Wind from North
Gusts 0.0 mph

Today
High -- | Low -- °F
--% Chance of Precip.
Yesterday
High -- | Low -- °F
Precip. -- in
6:46 AM 6:11 PM
Waxing Gibbous, 88% visible
Pressure 30.37 in
Visibility 2.5 miles
Clouds Mostly Cloudy 300 ft
Overcast 1000 ft
Windchill 32 °F
Dew Point 30 °F
Humidity 92%
Rainfall 0.29 in
Snow Depth Not available.
UV 0 out of 12
Pollen .80 out of 12
Air Quality Not available.
Flu Activity Not available.
METAR KIGX 020056Z AUTO 00000KT 2 1/2SM BR BKN003 OVC010 01/01 A3036 RMK AO2 SLP283 T00110006 TSNO $

More Conditions Fewer Conditions

Pressure 30.37 in
Visibility 2.5 miles
Clouds Mostly Cloudy 300 ft
Overcast 1000 ft
Windchill 32 °F
Dew Point 30 °F
Humidity 92%
Rainfall 0.29 in
Snow Depth Not available.
UV 0 out of 12
Pollen .80 out of 12
Air Quality Not available.
Flu Activity Not available.
METAR KIGX 020056Z AUTO 00000KT 2 1/2SM BR BKN003 OVC010 01/01 A3036 RMK AO2 SLP283 T00110006 TSNO $

More Conditions Fewer Conditions

10-Day Weather Forecast

Almanac

Astronomy

Mar. 01, 2015 Rise Set
Actual Time
Civil Twilight
Nautical Twilight
Astronomical Twilight
Moon
Length of Visible Light
Length of Day
Tomorrow will be .
, % of the Moon is Illuminated

Today's Extremes

State Highs State Lows

Community

WunderPhotos

Upload Photos

1,801,670 photos uploaded!

WunderBlogs® & News

Nearby

Air Quality

  Air Quality AQ Index Pollutant
Not available.

Snow Depth

Station Depth Elevation

Earthquake Activity

City Distance Mag. Time & Date
Minimum magnitude displayed is 2.5.

Coastal Water Temperatures

Place Temperature

Nearby Weather Stations